Kezdőlap
METAR-TAF:

METAR-TAF

Repülőterek :

Carlsbad, Új-Mexikó, Amerikai Egyesült Államok

földrajzi szélesség: 32-20-15N, földrajzi hosszúság: 104-15-48W, magasság: 1004 m

Jelenlegi meteorológiai megfigyelések

A jelentés 1 órával és 2 perccel ezelõtt készült, 02:53 UTC
Délnyugati szél 6 kt
Hőmérséklet 30°C
Páratartalom 33%
Légköri nyomás 1014 hPa
Látótávolság: 16.1 km
Derült ég

METAR: KCNM 130253Z AUTO 22006KT 10SM CLR 30/12 A2994 RMK AO2 SLP078 60000 T03000117 58003

Idő: 21:55 (03:55 UTC)

Előrejelzés

A jelentés 1 órával és 34 perccel ezelõtt készült, 02:21 UTC
Az előrejelzés 13-én 02 óra UTC és 13-én 24 óra UTC között érvényes
Dél-délkeleti szél 10 kt
Látótávolság: 10 km
Derült ég

TAF: KCNM 130221Z 1302/1324 15010KT P6SM SKC

Meteorológiai megfigyelések és előrejelzések több, mint 4000 repülőtéren (METAR és TAF jelentéseket).

A térképen piros és sárga pontok jelzik az elérhető meteorológiai állomásokat.

Mozgassa az egeret a pont fölött, hogy megjelenjen az állomás neve.

Azután kattintson az időjárási megfigyelések és előrejelzések megtekintéséhez.

A térkép megváltoztatása: kattintson a fekete keresztel jelölt zöld gombra ráközelítéshez, a vonallal jelölt zöld gombra távolításhoz, vagy a zöld nyilakra a szomszédos térképek eléréséhez.


METAR-TAF: